Detall de PIREP

Printer-friendly versionPDF version

[2013/09/26 08:43:00]
Flight IATA:CT3308
Pilot Number:012
Company ICAO:CAT
Aircraft Type:B738/F
PAX:160
Departing Airport: LEZG
Destination Airport: HLLT
Alternate Airport:LMML
Online: VATSIM
Route:PONEN UN870 BCN UN859 GENIO UM134 ANB UA411 LABIP UV334 NEDOS UR845 GASRI
Flight Level:F370
No Slew and time accel
No pause
Crash detect
Detect pilot in Cockpit between each 30 and 45 minutes
08:43 Zero fuel Weight: 123142 Lbs, Fuel Weight: 18637 Lbs
08:43 VATSIM:LEZG 260800Z 13009KT 100V160 8000 BKN008 21/18 Q1015
08:43 VATSIM:HLLT 260820Z VRB02KT 9999 FEW025 30/13 Q1018
08:44 VOICE CATALONIAN
08:46 Parking Brakes off
08:51 Take-off
08:51 Take off Weight: 141097 Lbs
08:51 Wind: 110º @ 008 Knots Heading: 119º
08:51 POS N41º 39´ 39´´ W001º 01´ 15´´
08:51 Gear Up: 159 Knots
08:51 Flaps:3 at 159 Knots
08:52 Flaps:2 at 165 Knots
08:52 Flaps:1 at 181 Knots
08:52 Flaps:0 at 208 Knots
09:06 Wind:224º@029 Knots Heading: 094º Ground Speed: 494 Knots Altitude 29009 ft
09:17 TOC
09:17 Fuel Weight: 13586 Lb
09:21 Wind:257º@026 Knots Heading: 168º Ground Speed: 470 Knots Altitude 37093 ft
09:36 Wind:268º@019 Knots Heading: 167º Ground Speed: 474 Knots Altitude 37099 ft
09:51 Wind:332º@016 Knots Heading: 121º Ground Speed: 484 Knots Altitude 37093 ft
10:06 Wind:347º@028 Knots Heading: 121º Ground Speed: 493 Knots Altitude 37125 ft
10:21 Wind:325º@023 Knots Heading: 124º Ground Speed: 496 Knots Altitude 37089 ft
10:36 Wind:306º@027 Knots Heading: 139º Ground Speed: 501 Knots Altitude 37086 ft
10:36 TOD
10:36 Fuel Weight: 6589 Lb
10:51 Wind:253º@006 Knots Heading: 096º Ground Speed: 295 Knots Altitude 8480 ft
10:53 Flaps:1 at 244 Knots
10:54 Flaps:2 at 217 Knots
10:54 Flaps:3 at 215 Knots
10:55 Flaps:4 at 197 Knots
10:55 Gear Down: 180 Knots
10:56 Flaps:5 at 153 Knots
10:56 Flaps:6 at 151 Knots
10:56 Flaps:7 at 143 Knots
10:59 TouchDown:Rate -119 ft/min Speed: 137 Knots
10:59 VATSIM:HLLT 261020Z VRB06KT CAVOK 33/11 Q1017
10:59 Land
10:59 Wind:023º@005 Knots
10:59 Heading: 280º
10:59 Flight Duration: 02:08
10:59 Landing Weight: 128745 Lbs
10:59 POS N32º 39´ 53´´ E013º 09´ 08´´
11:01 Parking brakes on
11:01 Block to Block Duration: 02:15
11:01 Final Fuel: 5423 Lbls
11:01 Spent Fuel: 13214 Lbls
11:01 Flight Length: 955 NM
11:01 TOD Land Length: 130 NM

Exportar CSV

Powered by Drupal - Modified by Danger4k